Time;durP1;ratioP1;P1;durP2;ratioP2;P2;SDS_P1;SDS_P2;PMS_P1;PMS_P2;Temp;Humidity;BMP_temperature;BMP_pressure;BME280_temperature;BME280_humidity;BME280_pressure;Samples;Min_cycle;Max_cycle;Signal;HPM_P1;HPM_P2
2023/05/08 00:00:27;;;;;;;6.73;6.17;;;;;;;;;;5071991;28;20237;-52
2023/05/08 00:02:53;;;;;;;6.77;6.10;;;;;;;;;;5071994;28;20192;-57
2023/05/08 00:05:20;;;;;;;6.37;5.77;;;;;;;;;;5071874;28;20237;-53
2023/05/08 00:07:47;;;;;;;6.70;6.10;;;;;;;;;;5070884;28;20207;-53
2023/05/08 00:10:13;;;;;;;7.13;5.77;;;;;;;;;;5071663;28;20444;-55
2023/05/08 00:12:39;;;;;;;6.33;5.83;;;;;;;;;;5071699;28;20584;-54
2023/05/08 00:15:05;;;;;;;6.40;5.90;;;;;;;;;;5071313;28;20196;-54
2023/05/08 00:17:31;;;;;;;7.97;5.73;;;;;;;;;;5071471;28;20204;-54
2023/05/08 00:19:57;;;;;;;5.73;5.23;;;;;;;;;;5071180;28;20198;-54
2023/05/08 00:22:25;;;;;;;9.67;5.70;;;;;;;;;;5071275;28;20290;-54
2023/05/08 00:24:51;;;;;;;6.50;5.90;;;;;;;;;;5071407;28;20214;-54
2023/05/08 00:27:17;;;;;;;5.77;5.27;;;;;;;;;;5071168;28;20191;-54
2023/05/08 00:29:43;;;;;;;6.17;5.57;;;;;;;;;;5071283;28;20851;-54
2023/05/08 00:32:09;;;;;;;5.60;5.10;;;;;;;;;;5071051;28;20203;-54
2023/05/08 00:34:35;;;;;;;6.20;5.70;;;;;;;;;;5071117;28;20239;-53
2023/05/08 00:37:02;;;;;;;5.60;5.20;;;;;;;;;;5071009;28;20685;-54
2023/05/08 00:39:30;;;;;;;5.93;5.43;;;;;;;;;;5071091;28;20199;-54
2023/05/08 00:41:56;;;;;;;5.47;5.00;;;;;;;;;;5071068;28;20223;-54
2023/05/08 00:44:22;;;;;;;5.87;5.07;;;;;;;;;;5071206;28;20230;-55
2023/05/08 00:46:48;;;;;;;6.53;5.93;;;;;;;;;;5071110;28;20665;-54
2023/05/08 00:49:15;;;;;;;5.70;5.20;;;;;;;;;;5070993;28;20804;-54
2023/05/08 00:51:42;;;;;;;5.87;5.37;;;;;;;;;;5071009;28;20215;-55
2023/05/08 00:54:08;;;;;;;5.93;5.20;;;;;;;;;;5070971;28;20223;-55
2023/05/08 00:56:36;;;;;;;5.40;5.00;;;;;;;;;;5071111;28;20282;-55
2023/05/08 00:59:02;;;;;;;5.83;5.33;;;;;;;;;;5070840;28;20666;-55
2023/05/08 01:01:29;;;;;;;6.33;5.50;;;;;;;;;;5070976;28;20202;-55
2023/05/08 01:03:55;;;;;;;6.03;5.53;;;;;;;;;;5070843;28;20226;-55
2023/05/08 01:06:21;;;;;;;6.60;5.87;;;;;;;;;;5070969;28;20203;-55
2023/05/08 01:08:47;;;;;;;6.70;6.00;;;;;;;;;;5070957;28;20196;-55
2023/05/08 01:11:17;;;;;;;6.13;5.63;;;;;;;;;;5070695;28;20200;-55
2023/05/08 01:13:51;;;;;;;6.47;5.90;;;;;;;;;;5071083;28;20796;-55
2023/05/08 01:16:19;;;;;;;5.83;5.27;;;;;;;;;;5070909;28;20199;-55
2023/05/08 01:18:47;;;;;;;6.00;5.50;;;;;;;;;;5070973;28;20199;-55
2023/05/08 01:21:17;;;;;;;6.07;5.57;;;;;;;;;;5074348;28;20575;-55
2023/05/08 01:23:57;;;;;;;6.43;5.83;;;;;;;;;;5074446;28;20306;-55
2023/05/08 01:26:32;;;;;;;6.10;5.47;;;;;;;;;;5074354;28;20270;-55
2023/05/08 01:29:19;;;;;;;6.17;5.57;;;;;;;;;;5074258;28;20684;-55
2023/05/08 01:31:51;;;;;;;7.23;6.47;;;;;;;;;;5074247;28;20199;-56
2023/05/08 01:34:20;;;;;;;6.00;5.27;;;;;;;;;;5073900;28;20709;-55
2023/05/08 01:36:50;;;;;;;6.83;6.23;;;;;;;;;;5074199;28;20203;-55
2023/05/08 01:39:18;;;;;;;7.80;6.30;;;;;;;;;;5074079;28;20191;-55
2023/05/08 01:41:48;;;;;;;7.07;6.47;;;;;;;;;;5074133;28;20199;-55
2023/05/08 01:44:16;;;;;;;7.07;6.43;;;;;;;;;;5073870;28;20210;-55
2023/05/08 01:46:44;;;;;;;7.10;6.33;;;;;;;;;;5073840;28;20668;-55
2023/05/08 01:49:11;;;;;;;6.97;6.27;;;;;;;;;;5073810;28;20253;-54
2023/05/08 01:51:41;;;;;;;6.97;6.37;;;;;;;;;;5074004;28;20191;-55
2023/05/08 01:54:08;;;;;;;7.17;6.57;;;;;;;;;;5073844;28;20265;-55
2023/05/08 01:56:35;;;;;;;7.00;6.30;;;;;;;;;;5074032;28;20557;-55
2023/05/08 01:59:02;;;;;;;7.73;7.13;;;;;;;;;;5073747;28;20666;-55
2023/05/08 02:01:29;;;;;;;7.20;6.50;;;;;;;;;;5073536;28;20191;-54
2023/05/08 02:03:57;;;;;;;7.37;6.77;;;;;;;;;;5073799;28;20219;-55
2023/05/08 02:06:25;;;;;;;6.93;6.33;;;;;;;;;;5073539;28;20197;-55
2023/05/08 02:08:54;;;;;;;7.57;6.87;;;;;;;;;;5073723;28;20283;-54
2023/05/08 02:11:20;;;;;;;6.63;6.07;;;;;;;;;;5073581;28;20265;-55
2023/05/08 02:13:47;;;;;;;7.30;6.57;;;;;;;;;;5073395;28;20266;-54
2023/05/08 02:16:14;;;;;;;7.20;6.57;;;;;;;;;;5073187;28;20203;-55
2023/05/08 02:18:42;;;;;;;7.30;6.70;;;;;;;;;;5073366;28;20222;-55
2023/05/08 02:21:09;;;;;;;8.13;7.40;;;;;;;;;;5073188;28;20199;-55
2023/05/08 02:23:35;;;;;;;7.27;6.67;;;;;;;;;;5073476;28;20628;-54
2023/05/08 02:26:03;;;;;;;7.43;6.53;;;;;;;;;;5073232;28;20278;-55
2023/05/08 02:28:29;;;;;;;7.37;6.77;;;;;;;;;;5073044;28;20595;-55
2023/05/08 02:30:56;;;;;;;7.60;6.80;;;;;;;;;;5072004;28;20207;-55
2023/05/08 02:33:22;;;;;;;7.33;6.73;;;;;;;;;;5072812;28;20242;-54
2023/05/08 02:35:49;;;;;;;7.47;6.77;;;;;;;;;;5073156;28;20212;-55
2023/05/08 02:38:17;;;;;;;7.73;7.03;;;;;;;;;;5072755;28;20203;-54
2023/05/08 02:40:45;;;;;;;7.50;6.80;;;;;;;;;;5072966;28;20299;-55
2023/05/08 02:43:12;;;;;;;7.53;6.93;;;;;;;;;;5072779;28;20673;-54
2023/05/08 02:45:40;;;;;;;8.40;7.00;;;;;;;;;;5073048;28;20203;-56
2023/05/08 02:48:08;;;;;;;7.57;6.90;;;;;;;;;;5072879;28;20203;-55
2023/05/08 02:50:37;;;;;;;7.70;7.00;;;;;;;;;;5072830;28;20198;-55
2023/05/08 02:53:04;;;;;;;6.57;6.00;;;;;;;;;;5072724;28;20308;-55
2023/05/08 02:55:34;;;;;;;7.37;6.77;;;;;;;;;;5072481;28;20242;-54
2023/05/08 02:58:04;;;;;;;7.50;6.90;;;;;;;;;;5072560;28;20231;-55
2023/05/08 03:00:34;;;;;;;7.93;7.23;;;;;;;;;;5072394;28;20222;-56
2023/05/08 03:03:04;;;;;;;8.20;7.40;;;;;;;;;;5072469;28;20198;-55
2023/05/08 03:05:32;;;;;;;7.57;6.80;;;;;;;;;;5072324;28;20274;-55
2023/05/08 03:07:59;;;;;;;7.60;6.97;;;;;;;;;;5072363;28;20198;-55
2023/05/08 03:10:28;;;;;;;7.87;7.17;;;;;;;;;;5072176;28;20207;-55
2023/05/08 03:12:56;;;;;;;7.63;7.03;;;;;;;;;;5072212;28;20190;-55
2023/05/08 03:15:25;;;;;;;8.17;7.40;;;;;;;;;;5072166;28;20241;-55
2023/05/08 03:17:54;;;;;;;7.30;6.70;;;;;;;;;;5072228;28;20646;-55
2023/05/08 03:20:21;;;;;;;7.60;6.93;;;;;;;;;;5072132;28;20207;-55
2023/05/08 03:22:48;;;;;;;7.50;6.80;;;;;;;;;;5072151;28;20241;-54
2023/05/08 03:25:15;;;;;;;7.17;6.57;;;;;;;;;;5071958;28;20192;-54
2023/05/08 03:27:41;;;;;;;7.27;6.57;;;;;;;;;;5072084;28;20195;-54
2023/05/08 03:30:08;;;;;;;7.70;6.90;;;;;;;;;;5071853;28;20666;-55
2023/05/08 03:32:34;;;;;;;7.13;6.53;;;;;;;;;;5071977;28;20203;-55
2023/05/08 03:35:02;;;;;;;6.70;6.10;;;;;;;;;;5071641;28;20234;-55
2023/05/08 03:37:28;;;;;;;6.87;6.27;;;;;;;;;;5071701;28;20199;-54
2023/05/08 03:39:54;;;;;;;8.40;7.60;;;;;;;;;;5071746;28;20204;-55
2023/05/08 03:42:21;;;;;;;7.33;6.63;;;;;;;;;;5071634;28;20196;-54
2023/05/08 03:44:50;;;;;;;7.20;6.50;;;;;;;;;;5071823;28;20234;-54
2023/05/08 03:47:16;;;;;;;7.33;6.63;;;;;;;;;;5071628;28;20196;-54
2023/05/08 03:49:44;;;;;;;7.23;6.63;;;;;;;;;;5071439;28;20210;-54
2023/05/08 03:52:12;;;;;;;6.73;6.13;;;;;;;;;;5071408;28;20196;-54
2023/05/08 03:54:38;;;;;;;6.50;6.00;;;;;;;;;;5071383;28;20318;-54
2023/05/08 03:57:04;;;;;;;7.47;6.77;;;;;;;;;;5071507;28;20298;-54
2023/05/08 03:59:38;;;;;;;7.17;6.53;;;;;;;;;;5071301;28;20266;-55
2023/05/08 04:02:09;;;;;;;6.63;6.07;;;;;;;;;;5071549;28;20612;-54
2023/05/08 04:04:38;;;;;;;7.13;6.53;;;;;;;;;;5071387;28;20222;-54
2023/05/08 04:07:07;;;;;;;7.07;6.47;;;;;;;;;;5071537;28;20290;-54
2023/05/08 04:09:37;;;;;;;6.93;6.33;;;;;;;;;;5071406;28;20205;-54
2023/05/08 04:12:05;;;;;;;7.10;6.50;;;;;;;;;;5071511;28;20282;-54
2023/05/08 04:14:34;;;;;;;7.93;7.23;;;;;;;;;;5071041;28;20301;-55
2023/05/08 04:17:03;;;;;;;8.17;7.47;;;;;;;;;;5071235;28;20204;-54
2023/05/08 04:19:32;;;;;;;7.57;6.87;;;;;;;;;;5071282;28;20244;-54
2023/05/08 04:22:02;;;;;;;7.53;6.87;;;;;;;;;;5071503;28;20202;-55
2023/05/08 04:24:28;;;;;;;8.00;7.30;;;;;;;;;;5071152;28;20641;-55
2023/05/08 04:26:56;;;;;;;9.43;8.53;;;;;;;;;;5071275;28;20233;-55
2023/05/08 04:29:22;;;;;;;8.33;7.63;;;;;;;;;;5071204;28;20469;-55
2023/05/08 04:31:49;;;;;;;8.60;7.80;;;;;;;;;;5071474;28;20252;-55
2023/05/08 04:34:16;;;;;;;9.03;8.23;;;;;;;;;;5070913;28;20235;-55
2023/05/08 04:36:42;;;;;;;8.80;8.10;;;;;;;;;;5071149;28;20223;-55
2023/05/08 04:39:08;;;;;;;9.33;8.43;;;;;;;;;;5071191;28;20192;-55
2023/05/08 04:41:34;;;;;;;8.33;7.50;;;;;;;;;;5071094;28;20199;-55
2023/05/08 04:44:03;;;;;;;8.63;7.93;;;;;;;;;;5070933;28;20199;-58
2023/05/08 04:46:29;;;;;;;8.17;7.47;;;;;;;;;;5070538;28;20261;-54
2023/05/08 04:48:55;;;;;;;8.70;7.97;;;;;;;;;;5070957;28;20195;-54
2023/05/08 04:51:21;;;;;;;9.20;8.30;;;;;;;;;;5071037;28;20257;-54
2023/05/08 04:53:47;;;;;;;9.17;8.30;;;;;;;;;;5071023;28;20314;-53
2023/05/08 04:56:13;;;;;;;7.63;6.93;;;;;;;;;;5074891;28;20302;-55
2023/05/08 04:58:39;;;;;;;8.80;8.00;;;;;;;;;;5074663;28;20206;-55
2023/05/08 05:01:06;;;;;;;8.77;7.97;;;;;;;;;;5074956;28;20196;-55
2023/05/08 05:03:32;;;;;;;8.83;8.03;;;;;;;;;;5074641;28;20228;-54
2023/05/08 05:05:58;;;;;;;7.87;7.17;;;;;;;;;;5074750;28;20203;-55
2023/05/08 05:08:25;;;;;;;8.37;7.67;;;;;;;;;;5074550;28;20198;-54
2023/05/08 05:10:51;;;;;;;8.60;7.80;;;;;;;;;;5074763;28;20563;-54
2023/05/08 05:13:17;;;;;;;8.73;7.87;;;;;;;;;;5074374;28;20223;-54
2023/05/08 05:15:43;;;;;;;8.67;7.77;;;;;;;;;;5074213;28;20523;-54
2023/05/08 05:18:10;;;;;;;7.97;7.17;;;;;;;;;;5073892;28;20290;-55
2023/05/08 05:20:36;;;;;;;8.40;7.60;;;;;;;;;;5074071;28;20204;-55
2023/05/08 05:23:03;;;;;;;7.47;6.77;;;;;;;;;;5074440;28;20206;-55
2023/05/08 05:25:29;;;;;;;8.20;7.50;;;;;;;;;;5074130;28;20195;-55
2023/05/08 05:27:55;;;;;;;8.20;7.50;;;;;;;;;;5074328;28;20203;-55
2023/05/08 05:30:21;;;;;;;7.90;7.17;;;;;;;;;;5074244;28;20210;-54
2023/05/08 05:32:47;;;;;;;8.43;7.27;;;;;;;;;;5074012;28;20772;-55
2023/05/08 05:35:15;;;;;;;8.67;7.87;;;;;;;;;;5073770;28;20318;-54
2023/05/08 05:37:41;;;;;;;7.87;7.27;;;;;;;;;;5073860;28;20264;-55
2023/05/08 05:40:07;;;;;;;9.10;8.30;;;;;;;;;;5074033;28;20556;-54
2023/05/08 05:42:33;;;;;;;8.27;7.57;;;;;;;;;;5074049;28;20201;-55
2023/05/08 05:45:00;;;;;;;8.00;7.30;;;;;;;;;;5073971;28;20634;-55
2023/05/08 05:47:26;;;;;;;7.27;6.67;;;;;;;;;;5073740;28;20776;-55
2023/05/08 05:49:52;;;;;;;7.37;6.70;;;;;;;;;;5073952;28;20286;-55
2023/05/08 05:52:20;;;;;;;8.07;6.93;;;;;;;;;;5073850;28;20294;-55
2023/05/08 05:54:46;;;;;;;7.90;7.10;;;;;;;;;;5073816;28;20226;-55
2023/05/08 05:57:12;;;;;;;7.60;6.90;;;;;;;;;;5073698;28;20829;-55
2023/05/08 05:59:38;;;;;;;9.53;7.90;;;;;;;;;;5073558;28;20213;-55
2023/05/08 06:02:05;;;;;;;7.40;6.70;;;;;;;;;;5073760;28;20191;-55
2023/05/08 06:04:31;;;;;;;6.87;6.27;;;;;;;;;;5073476;28;20628;-55
2023/05/08 06:06:57;;;;;;;7.83;6.70;;;;;;;;;;5073551;28;20191;-55
2023/05/08 06:09:24;;;;;;;7.07;6.30;;;;;;;;;;5073568;28;20199;-55
2023/05/08 06:11:50;;;;;;;6.70;6.10;;;;;;;;;;5073626;28;20658;-55
2023/05/08 06:14:16;;;;;;;9.03;6.00;;;;;;;;;;5073167;28;20262;-55
2023/05/08 06:16:43;;;;;;;8.47;6.47;;;;;;;;;;5072993;28;20239;-55
2023/05/08 06:19:09;;;;;;;7.50;6.80;;;;;;;;;;5072997;28;20665;-55
2023/05/08 06:21:36;;;;;;;7.27;6.57;;;;;;;;;;5073419;28;20215;-55
2023/05/08 06:24:02;;;;;;;7.17;6.57;;;;;;;;;;5073400;28;20195;-55
2023/05/08 06:26:29;;;;;;;6.77;6.17;;;;;;;;;;5073227;28;20191;-55
2023/05/08 06:28:55;;;;;;;6.77;6.17;;;;;;;;;;5073094;28;20588;-55
2023/05/08 06:31:21;;;;;;;6.50;5.90;;;;;;;;;;5073335;28;20203;-55
2023/05/08 06:33:47;;;;;;;5.73;5.23;;;;;;;;;;5072818;28;20372;-55
2023/05/08 06:36:13;;;;;;;6.80;6.30;;;;;;;;;;5073083;28;20203;-55
2023/05/08 06:38:39;;;;;;;6.23;5.73;;;;;;;;;;5072941;28;20287;-55
2023/05/08 06:41:05;;;;;;;6.60;5.83;;;;;;;;;;5073362;28;20239;-56
2023/05/08 06:43:33;;;;;;;7.03;6.30;;;;;;;;;;5072925;28;20321;-56
2023/05/08 06:45:59;;;;;;;7.43;6.73;;;;;;;;;;5072917;28;20208;-56
2023/05/08 06:48:27;;;;;;;7.00;6.30;;;;;;;;;;5073021;28;20286;-57
2023/05/08 06:50:54;;;;;;;6.67;6.00;;;;;;;;;;5072825;28;20206;-54
2023/05/08 06:53:20;;;;;;;7.00;6.50;;;;;;;;;;5072903;28;20645;-54
2023/05/08 06:55:46;;;;;;;7.63;5.93;;;;;;;;;;5072796;28;20199;-56
2023/05/08 06:58:12;;;;;;;6.43;5.63;;;;;;;;;;5072953;28;20253;-55
2023/05/08 07:00:39;;;;;;;7.43;6.63;;;;;;;;;;5072583;28;20208;-56
2023/05/08 07:03:06;;;;;;;7.27;6.67;;;;;;;;;;5072788;28;20215;-55
2023/05/08 07:05:32;;;;;;;6.60;6.00;;;;;;;;;;5072636;28;20241;-55
2023/05/08 07:07:58;;;;;;;6.40;5.90;;;;;;;;;;5072668;28;20199;-55
2023/05/08 07:10:24;;;;;;;6.30;5.80;;;;;;;;;;5072496;28;20558;-55
2023/05/08 07:12:50;;;;;;;5.93;5.33;;;;;;;;;;5072422;28;20286;-55
2023/05/08 07:15:16;;;;;;;8.97;6.03;;;;;;;;;;5072145;28;20310;-55
2023/05/08 07:17:43;;;;;;;6.57;5.60;;;;;;;;;;5071683;28;20326;-55
2023/05/08 07:20:09;;;;;;;7.37;5.93;;;;;;;;;;5072175;28;20569;-56
2023/05/08 07:22:35;;;;;;;6.00;5.50;;;;;;;;;;5072107;28;20575;-56
2023/05/08 07:25:01;;;;;;;6.20;5.67;;;;;;;;;;5072070;28;20192;-56
2023/05/08 07:27:27;;;;;;;5.70;5.20;;;;;;;;;;5071862;28;20199;-56
2023/05/08 07:29:53;;;;;;;6.67;6.07;;;;;;;;;;5071852;28;20208;-56
2023/05/08 07:32:19;;;;;;;6.23;5.63;;;;;;;;;;5072067;28;20202;-56
2023/05/08 07:34:46;;;;;;;6.10;5.50;;;;;;;;;;5071397;28;20255;-56
2023/05/08 07:37:13;;;;;;;5.97;5.47;;;;;;;;;;5071901;28;20594;-56
2023/05/08 07:39:39;;;;;;;6.00;5.40;;;;;;;;;;5071640;28;20229;-56
2023/05/08 07:42:05;;;;;;;6.57;6.03;;;;;;;;;;5071755;28;20736;-56
2023/05/08 07:44:32;;;;;;;5.67;5.17;;;;;;;;;;5071811;28;20231;-57
2023/05/08 07:46:58;;;;;;;5.77;4.73;;;;;;;;;;5071442;28;20264;-57
2023/05/08 07:49:24;;;;;;;5.43;4.93;;;;;;;;;;5071668;28;20203;-57
2023/05/08 07:51:52;;;;;;;5.50;5.03;;;;;;;;;;5071662;28;20231;-59
2023/05/08 07:54:17;;;;;;;5.40;4.90;;;;;;;;;;5071602;28;20307;-57
2023/05/08 07:56:43;;;;;;;6.00;5.50;;;;;;;;;;5071389;28;20231;-57
2023/05/08 07:59:09;;;;;;;6.27;5.67;;;;;;;;;;5071637;28;20198;-57
2023/05/08 08:01:35;;;;;;;5.97;5.47;;;;;;;;;;5071572;28;20207;-55
2023/05/08 08:04:01;;;;;;;5.50;5.00;;;;;;;;;;5071570;28;20212;-55
2023/05/08 08:06:27;;;;;;;5.80;5.20;;;;;;;;;;5071405;28;20677;-56
2023/05/08 08:08:55;;;;;;;5.67;5.10;;;;;;;;;;5071248;28;20205;-55
2023/05/08 08:11:21;;;;;;;5.40;4.90;;;;;;;;;;5071623;28;20196;-55
2023/05/08 08:13:47;;;;;;;5.90;5.40;;;;;;;;;;5071224;28;20224;-56
2023/05/08 08:16:13;;;;;;;5.43;5.03;;;;;;;;;;5071252;28;20206;-57
2023/05/08 08:18:39;;;;;;;5.97;5.47;;;;;;;;;;5071147;28;20196;-55
2023/05/08 08:21:06;;;;;;;5.87;5.03;;;;;;;;;;5071520;28;20204;-55
2023/05/08 08:23:32;;;;;;;5.73;5.23;;;;;;;;;;5071332;28;20677;-55
2023/05/08 08:25:59;;;;;;;5.63;5.13;;;;;;;;;;5071200;28;20253;-55
2023/05/08 08:28:25;;;;;;;7.80;6.33;;;;;;;;;;5071040;28;20662;-55
2023/05/08 08:30:51;;;;;;;6.10;5.60;;;;;;;;;;5075412;28;20202;-54
2023/05/08 08:33:17;;;;;;;7.67;6.27;;;;;;;;;;5075210;28;20250;-55
2023/05/08 08:35:43;;;;;;;8.67;6.10;;;;;;;;;;5075438;28;20199;-55
2023/05/08 08:38:09;;;;;;;5.57;5.07;;;;;;;;;;5075574;28;20253;-55
2023/05/08 08:40:38;;;;;;;6.03;5.53;;;;;;;;;;5075487;28;20207;-55
2023/05/08 08:43:05;;;;;;;6.30;5.73;;;;;;;;;;5075527;28;20648;-55
2023/05/08 08:45:31;;;;;;;6.77;6.23;;;;;;;;;;5075373;28;20268;-55
2023/05/08 08:48:00;;;;;;;6.03;5.47;;;;;;;;;;5075126;28;20241;-55
2023/05/08 08:50:29;;;;;;;5.20;4.80;;;;;;;;;;5075218;28;20568;-55
2023/05/08 08:52:56;;;;;;;5.93;5.43;;;;;;;;;;5075219;28;20203;-55
2023/05/08 08:55:22;;;;;;;6.77;6.23;;;;;;;;;;5075279;28;20272;-54
2023/05/08 08:57:52;;;;;;;7.83;5.73;;;;;;;;;;5075087;28;20203;-55
2023/05/08 09:00:21;;;;;;;6.47;5.97;;;;;;;;;;5075041;28;20563;-54
2023/05/08 09:02:47;;;;;;;7.23;6.53;;;;;;;;;;5074877;28;20319;-54
2023/05/08 09:05:13;;;;;;;7.50;6.47;;;;;;;;;;5074920;28;20211;-55
2023/05/08 09:07:42;;;;;;;6.43;5.83;;;;;;;;;;5074918;28;20608;-54
2023/05/08 09:10:14;;;;;;;7.03;6.43;;;;;;;;;;5075046;28;20203;-56
2023/05/08 09:12:40;;;;;;;6.67;5.83;;;;;;;;;;5074765;28;20200;-55
2023/05/08 09:15:06;;;;;;;6.50;5.90;;;;;;;;;;5074835;28;20247;-56
2023/05/08 09:17:33;;;;;;;6.43;5.83;;;;;;;;;;5074630;28;20207;-55
2023/05/08 09:20:00;;;;;;;8.33;6.00;;;;;;;;;;5074394;28;20200;-56
2023/05/08 09:22:26;;;;;;;6.07;5.57;;;;;;;;;;5074384;28;20206;-56
2023/05/08 09:24:56;;;;;;;6.63;6.03;;;;;;;;;;5074714;28;20270;-55
2023/05/08 09:27:22;;;;;;;7.20;6.30;;;;;;;;;;5074657;28;20197;-56
2023/05/08 09:29:59;;;;;;;7.00;6.37;;;;;;;;;;5074417;28;20203;-56
2023/05/08 09:32:25;;;;;;;7.07;6.37;;;;;;;;;;5074478;28;20230;-56
2023/05/08 09:34:53;;;;;;;6.60;6.00;;;;;;;;;;5074286;28;20236;-55
2023/05/08 09:37:19;;;;;;;6.07;5.50;;;;;;;;;;5074294;28;20661;-55
2023/05/08 09:39:46;;;;;;;6.77;6.07;;;;;;;;;;5073692;28;20204;-56
2023/05/08 09:42:13;;;;;;;6.37;5.77;;;;;;;;;;5074424;28;20222;-55
2023/05/08 09:44:43;;;;;;;6.10;5.60;;;;;;;;;;5074438;28;20216;-55
2023/05/08 09:47:10;;;;;;;5.80;5.30;;;;;;;;;;5074094;28;20260;-56
2023/05/08 09:49:38;;;;;;;5.40;4.90;;;;;;;;;;5074049;28;20206;-55
2023/05/08 09:52:06;;;;;;;5.63;5.17;;;;;;;;;;5074243;28;20611;-56
2023/05/08 09:54:32;;;;;;;5.80;5.20;;;;;;;;;;5074058;28;20221;-56
2023/05/08 09:56:58;;;;;;;5.83;5.20;;;;;;;;;;5073899;28;20194;-56
2023/05/08 09:59:25;;;;;;;5.53;5.03;;;;;;;;;;5074017;28;20198;-56
2023/05/08 10:01:51;;;;;;;5.67;5.07;;;;;;;;;;5074049;28;20203;-58
2023/05/08 10:04:17;;;;;;;5.37;4.87;;;;;;;;;;5073759;28;20226;-56
2023/05/08 10:06:43;;;;;;;4.83;4.43;;;;;;;;;;5073787;28;20203;-56
2023/05/08 10:09:12;;;;;;;5.13;4.63;;;;;;;;;;5073823;28;20199;-57
2023/05/08 10:11:39;;;;;;;5.90;5.30;;;;;;;;;;5073933;28;20200;-57
2023/05/08 10:14:05;;;;;;;6.73;5.37;;;;;;;;;;5073661;28;20296;-56
2023/05/08 10:16:32;;;;;;;5.23;4.73;;;;;;;;;;5073725;28;20198;-57
2023/05/08 10:19:01;;;;;;;6.17;5.67;;;;;;;;;;5073718;28;20614;-56
2023/05/08 10:21:28;;;;;;;6.03;5.47;;;;;;;;;;5073660;28;20195;-56
2023/05/08 10:23:56;;;;;;;6.33;5.73;;;;;;;;;;5073514;28;20534;-56
2023/05/08 10:26:25;;;;;;;6.20;5.27;;;;;;;;;;5067061;28;20205;-57
2023/05/08 10:28:56;;;;;;;6.20;5.60;;;;;;;;;;5068982;28;20209;-56
2023/05/08 10:31:24;;;;;;;5.80;5.20;;;;;;;;;;5073395;28;20278;-56
2023/05/08 10:33:51;;;;;;;5.43;4.93;;;;;;;;;;5072765;28;20573;-56
2023/05/08 10:36:17;;;;;;;6.90;5.17;;;;;;;;;;5073132;28;20279;-56
2023/05/08 10:38:43;;;;;;;5.70;5.20;;;;;;;;;;5073128;28;20246;-55
2023/05/08 10:41:09;;;;;;;5.97;5.47;;;;;;;;;;5072962;28;20210;-55
2023/05/08 10:43:40;;;;;;;7.27;5.40;;;;;;;;;;5072927;28;20693;-55
2023/05/08 10:46:09;;;;;;;5.47;4.90;;;;;;;;;;5072526;28;20557;-56
2023/05/08 10:48:39;;;;;;;5.17;4.77;;;;;;;;;;5073055;28;20207;-56
2023/05/08 10:51:06;;;;;;;6.17;5.33;;;;;;;;;;5073002;28;20199;-55
2023/05/08 10:53:36;;;;;;;4.83;4.37;;;;;;;;;;5072101;28;20560;-56
2023/05/08 10:56:02;;;;;;;5.87;5.27;;;;;;;;;;5072813;28;20274;-55
2023/05/08 10:58:29;;;;;;;6.07;4.63;;;;;;;;;;5072381;28;20197;-55
2023/05/08 11:01:13;;;;;;;6.80;5.13;;;;;;;;;;5072667;28;20196;-56
2023/05/08 11:03:41;;;;;;;5.13;4.70;;;;;;;;;;5072379;28;20219;-56
2023/05/08 11:06:07;;;;;;;6.97;4.67;;;;;;;;;;5072484;28;20213;-55
2023/05/08 11:08:42;;;;;;;4.47;4.07;;;;;;;;;;5072369;28;20204;-56
2023/05/08 11:11:13;;;;;;;5.82;5.22;;;;;;;;;;5071127;28;20762;-56
2023/05/08 11:13:41;;;;;;;6.00;5.40;;;;;;;;;;5071056;28;20491;-56
2023/05/08 11:16:09;;;;;;;5.70;5.20;;;;;;;;;;5071212;28;20431;-56
2023/05/08 11:18:37;;;;;;;6.07;5.47;;;;;;;;;;5071122;28;20403;-55
2023/05/08 11:21:04;;;;;;;7.47;5.35;;;;;;;;;;5070658;28;20489;-56
2023/05/08 11:23:31;;;;;;;6.03;5.50;;;;;;;;;;5071008;28;20402;-57
2023/05/08 11:26:01;;;;;;;5.63;5.03;;;;;;;;;;5070775;28;20388;-56
2023/05/08 11:28:27;;;;;;;6.07;5.18;;;;;;;;;;5070663;28;20388;-57
2023/05/08 11:30:55;;;;;;;5.05;4.57;;;;;;;;;;5070694;28;20402;-56
2023/05/08 11:33:22;;;;;;;5.00;4.20;;;;;;;;;;5071748;28;20250;-56
2023/05/08 11:35:50;;;;;;;4.50;4.03;;;;;;;;;;5070306;28;20411;-57
2023/05/08 11:38:17;;;;;;;5.60;5.00;;;;;;;;;;5070405;28;20815;-57
2023/05/08 11:40:48;;;;;;;5.68;4.88;;;;;;;;;;5070548;28;20482;-57
2023/05/08 11:43:27;;;;;;;5.78;4.63;;;;;;;;;;5070335;28;20419;-56
2023/05/08 11:45:54;;;;;;;5.97;5.05;;;;;;;;;;5070086;28;20392;-56
2023/05/08 11:48:20;;;;;;;5.50;5.00;;;;;;;;;;5070741;28;20392;-56
2023/05/08 11:50:45;;;;;;;5.50;5.00;;;;;;;;;;5070416;28;20739;-56
2023/05/08 11:53:13;;;;;;;5.55;4.95;;;;;;;;;;5070156;28;20518;-56
2023/05/08 11:55:39;;;;;;;4.85;4.10;;;;;;;;;;5070389;28;20450;-57
2023/05/08 11:58:11;;;;;;;5.95;4.10;;;;;;;;;;5068028;28;20403;-56
2023/05/08 12:00:40;;;;;;;4.00;3.60;;;;;;;;;;5070580;28;20420;-56
2023/05/08 12:03:06;;;;;;;5.63;3.72;;;;;;;;;;5070145;28;20890;-57
2023/05/08 12:05:32;;;;;;;5.35;4.30;;;;;;;;;;5070337;28;20450;-56
2023/05/08 12:07:59;;;;;;;7.20;4.43;;;;;;;;;;5070318;28;20498;-56
2023/05/08 12:10:26;;;;;;;5.43;4.00;;;;;;;;;;5070125;28;20403;-56
2023/05/08 12:12:52;;;;;;;5.00;3.75;;;;;;;;;;5070218;28;20399;-57
2023/05/08 12:15:18;;;;;;;4.30;3.63;;;;;;;;;;5070221;28;20928;-57
2023/05/08 12:17:44;;;;;;;4.80;4.38;;;;;;;;;;5070212;28;20404;-57
2023/05/08 12:20:11;;;;;;;4.95;3.60;;;;;;;;;;5070100;28;20467;-57
2023/05/08 12:22:38;;;;;;;4.07;3.78;;;;;;;;;;5069911;28;20396;-57
2023/05/08 12:25:04;;;;;;;3.60;3.28;;;;;;;;;;5070127;28;20391;-56
2023/05/08 12:27:31;;;;;;;4.20;2.70;;;;;;;;;;5069978;28;20406;-56
2023/05/08 12:29:57;;;;;;;3.80;3.50;;;;;;;;;;5070098;28;20502;-57
2023/05/08 12:32:23;;;;;;;3.60;3.30;;;;;;;;;;5069461;28;20266;-56
2023/05/08 12:34:51;;;;;;;5.38;3.45;;;;;;;;;;5068421;28;20420;-56
2023/05/08 12:37:23;;;;;;;3.55;3.25;;;;;;;;;;5070027;28;20499;-56
2023/05/08 12:39:49;;;;;;;6.30;3.20;;;;;;;;;;5070391;28;20400;-55
2023/05/08 12:42:15;;;;;;;5.13;3.88;;;;;;;;;;5070084;28;20407;-56
2023/05/08 12:44:49;;;;;;;4.07;3.67;;;;;;;;;;5070001;28;20778;-57
2023/05/08 12:47:15;;;;;;;3.65;3.15;;;;;;;;;;5069843;28;20448;-56
2023/05/08 12:49:41;;;;;;;3.70;3.40;;;;;;;;;;5070082;28;20404;-57
2023/05/08 12:52:07;;;;;;;4.47;4.07;;;;;;;;;;5070067;28;20942;-57
2023/05/08 12:54:35;;;;;;;4.10;3.80;;;;;;;;;;5071342;28;20230;-57
2023/05/08 12:57:01;;;;;;;4.30;3.90;;;;;;;;;;5069856;28;20425;-57
2023/05/08 12:59:31;;;;;;;3.40;3.10;;;;;;;;;;5069932;28;20490;-56
2023/05/08 13:01:59;;;;;;;3.88;2.90;;;;;;;;;;5069952;28;20403;-57
2023/05/08 13:04:25;;;;;;;4.88;3.30;;;;;;;;;;5069953;28;20507;-57
2023/05/08 13:06:54;;;;;;;11.13;3.67;;;;;;;;;;5070137;28;20445;-57
2023/05/08 13:09:21;;;;;;;5.10;3.70;;;;;;;;;;5070094;28;20407;-58
2023/05/08 13:11:47;;;;;;;5.00;3.47;;;;;;;;;;5069875;28;20391;-56
2023/05/08 13:14:14;;;;;;;3.40;3.10;;;;;;;;;;5069685;28;20759;-57
2023/05/08 13:16:43;;;;;;;3.55;3.20;;;;;;;;;;5072856;28;20399;-57
2023/05/08 13:19:10;;;;;;;3.75;3.10;;;;;;;;;;5073425;28;20460;-58
2023/05/08 13:21:37;;;;;;;4.50;3.47;;;;;;;;;;5073651;28;20478;-58
2023/05/08 13:24:03;;;;;;;3.22;2.92;;;;;;;;;;5073470;28;20426;-60
2023/05/08 13:26:29;;;;;;;4.60;3.60;;;;;;;;;;5073533;28;20494;-58
2023/05/08 13:28:55;;;;;;;3.85;3.55;;;;;;;;;;5073219;28;20885;-57
2023/05/08 13:31:21;;;;;;;4.50;3.40;;;;;;;;;;5073327;28;20403;-57
2023/05/08 13:33:47;;;;;;;3.90;3.25;;;;;;;;;;5072966;28;20419;-57
2023/05/08 13:36:15;;;;;;;3.40;3.08;;;;;;;;;;5073159;28;20407;-58
2023/05/08 13:38:40;;;;;;;4.33;3.93;;;;;;;;;;5073133;28;20419;-58
2023/05/08 13:41:06;;;;;;;6.18;3.60;;;;;;;;;;5073220;28;20408;-57
2023/05/08 13:43:35;;;;;;;4.22;3.72;;;;;;;;;;5073129;28;20935;-58
2023/05/08 13:46:01;;;;;;;4.25;3.67;;;;;;;;;;5072984;28;20796;-58
2023/05/08 13:48:27;;;;;;;4.75;4.10;;;;;;;;;;5073016;28;20858;-58
2023/05/08 13:50:53;;;;;;;4.00;3.60;;;;;;;;;;5073030;28;20510;-58
2023/05/08 13:53:20;;;;;;;5.10;3.42;;;;;;;;;;5072842;28;20442;-57
2023/05/08 13:55:46;;;;;;;4.38;3.10;;;;;;;;;;5072905;28;20411;-57
2023/05/08 13:58:12;;;;;;;4.13;3.73;;;;;;;;;;5072576;28;20399;-57
2023/05/08 14:00:38;;;;;;;4.80;3.80;;;;;;;;;;5072648;28;20908;-58
2023/05/08 14:03:04;;;;;;;3.33;2.95;;;;;;;;;;5072874;28;20478;-57
2023/05/08 14:05:30;;;;;;;4.00;3.60;;;;;;;;;;5072812;28;20472;-57
2023/05/08 14:07:56;;;;;;;4.32;3.35;;;;;;;;;;5072710;28;20890;-58
2023/05/08 14:10:24;;;;;;;5.55;3.17;;;;;;;;;;5072684;28;20434;-58
2023/05/08 14:12:50;;;;;;;4.55;3.10;;;;;;;;;;5072921;28;20426;-58
2023/05/08 14:15:16;;;;;;;3.10;2.80;;;;;;;;;;5072382;28;20777;-58
2023/05/08 14:17:42;;;;;;;4.90;3.25;;;;;;;;;;5072687;28;20435;-59
2023/05/08 14:20:09;;;;;;;4.57;3.20;;;;;;;;;;5072282;28;20477;-59
2023/05/08 14:22:35;;;;;;;5.33;3.57;;;;;;;;;;5072459;28;20406;-58
2023/05/08 14:25:00;;;;;;;4.38;3.40;;;;;;;;;;5072259;28;20936;-57
2023/05/08 14:27:28;;;;;;;5.40;3.80;;;;;;;;;;5070816;28;20672;-57
2023/05/08 14:29:54;;;;;;;4.57;3.40;;;;;;;;;;5072225;28;20404;-57
2023/05/08 14:32:20;;;;;;;3.95;3.15;;;;;;;;;;5072027;28;20885;-57
2023/05/08 14:34:46;;;;;;;4.40;3.60;;;;;;;;;;5071696;28;20483;-57
2023/05/08 14:37:12;;;;;;;3.97;3.60;;;;;;;;;;5071898;28;20396;-57
2023/05/08 14:39:38;;;;;;;4.10;3.80;;;;;;;;;;5072051;28;20396;-57
2023/05/08 14:42:04;;;;;;;3.95;3.58;;;;;;;;;;5072045;28;20403;-57